Oxbow, Maine
Current Conditions -  °F | °C
As of 1:15 AM on Thursday 23 Oct 2014 (Local Time) from KPQI Reporting Station
Overcast Overcast  
Wind Chill: 37°   Ceiling: 3600
Heat Index: 43°   Visibility: 10mi
Dew Point: 34°   Wind: 9mph
Humidity: 70%   Direction: 10°N
Pressure: 30.26"   Gusts: NA
Location:  46.42°N, 68.49°W
Report Text: KPQI 230515Z AUTO 01008KT 10SM FEW020 OVC036 06/01 A3026 RMK AO1
Loading
Personal Weather Stations






























Interactive Weather Map
Tropical Storm Tracking
New forecast layout! Learn more

10-Day Weather Forecast

Advertisements
Track Severe Weather on mobile